Time;durP1;ratioP1;P1;durP2;ratioP2;P2;SDS_P1;SDS_P2;PMS_P1;PMS_P2;Temp;Humidity;BMP_temperature;BMP_pressure;BME280_temperature;BME280_humidity;BME280_pressure;Samples;Min_cycle;Max_cycle;Signal;HPM_P1;HPM_P2
2024/01/07 00:02:24;;;;;;;0.20;0.20;;;;;;;5.98;74.93;99947.75;4990346;28;20030;-90
2024/01/07 00:04:50;;;;;;;0.20;0.20;;;;;;;6.05;75.12;99949.19;4991950;28;20034;-89
2024/01/07 00:07:15;;;;;;;0.20;0.20;;;;;;;6.10;75.42;99977.25;4990674;28;20530;-91
2024/01/07 00:09:41;;;;;;;0.10;0.10;;;;;;;6.01;75.55;99961.31;5008702;28;20404;-90
2024/01/07 00:12:06;;;;;;;0.20;0.20;;;;;;;6.03;76.90;99971.53;4995836;28;20037;-89
2024/01/07 00:14:32;;;;;;;0.20;0.20;;;;;;;6.16;75.96;99964.16;4994470;28;20030;-89
2024/01/07 00:16:58;;;;;;;0.20;0.20;;;;;;;6.11;76.92;99968.66;4995042;28;20539;-91
2024/01/07 00:19:23;;;;;;;0.20;0.20;;;;;;;6.04;76.95;99968.88;4994634;28;20042;-89
2024/01/07 00:21:49;;;;;;;0.20;0.20;;;;;;;6.15;76.54;99970.19;5010581;28;20101;-92
2024/01/07 00:24:15;;;;;;;0.20;0.20;;;;;;;6.12;77.10;99960.88;4994381;28;20130;-89
2024/01/07 00:26:41;;;;;;;0.10;0.10;;;;;;;6.07;77.70;99956.81;4994275;28;20023;-91
2024/01/07 00:29:06;;;;;;;0.20;0.20;;;;;;;5.83;77.72;99915.81;5010808;28;20490;-89
2024/01/07 00:31:32;;;;;;;0.20;0.20;;;;;;;6.06;78.10;99929.47;4995118;28;20504;-90
2024/01/07 00:33:57;;;;;;;0.20;0.20;;;;;;;6.08;77.90;99923.38;4994287;28;20081;-89
2024/01/07 00:36:23;;;;;;;0.20;0.20;;;;;;;6.12;77.80;99930.06;4994187;28;20023;-89
2024/01/07 00:38:48;;;;;;;0.20;0.20;;;;;;;6.14;77.78;99932.56;4994091;28;20019;-90
2024/01/07 00:41:14;;;;;;;0.10;0.10;;;;;;;6.10;78.06;99931.03;4994019;28;20062;-92
2024/01/07 00:43:40;;;;;;;0.10;0.10;;;;;;;6.11;78.28;99922.44;5010604;28;20608;-90
2024/01/07 00:46:06;;;;;;;0.20;0.20;;;;;;;6.11;77.76;99925.00;4993870;28;20030;-91
2024/01/07 00:48:31;;;;;;;0.20;0.20;;;;;;;5.94;78.96;99920.53;4993960;28;20034;-90
2024/01/07 00:50:57;;;;;;;0.10;0.10;;;;;;;5.82;79.38;99887.66;4994134;28;20607;-90
2024/01/07 00:53:22;;;;;;;0.10;0.10;;;;;;;6.07;78.83;99921.69;4993861;28;20069;-91
2024/01/07 00:55:48;;;;;;;0.20;0.20;;;;;;;6.08;79.39;99913.09;5010249;28;20027;-90
2024/01/07 00:58:14;;;;;;;0.20;0.20;;;;;;;6.12;78.31;99903.53;5010216;28;20038;-90
2024/01/07 01:00:39;;;;;;;0.20;0.20;;;;;;;6.19;78.10;99904.94;5009736;28;20031;-89
2024/01/07 01:03:05;;;;;;;0.20;0.20;;;;;;;6.08;78.20;99866.03;4994693;28;20030;-90
2024/01/07 01:05:30;;;;;;;0.20;0.20;;;;;;;6.25;78.31;99889.28;5009795;28;20033;-90
2024/01/07 01:07:56;;;;;;;0.20;0.20;;;;;;;6.22;78.60;99881.72;5009667;28;20066;-91
2024/01/07 01:10:21;;;;;;;0.20;0.20;;;;;;;6.29;78.29;99885.66;4993493;28;20381;-90
2024/01/07 01:12:47;;;;;;;0.20;0.20;;;;;;;6.48;77.44;99890.84;4994680;28;20408;-92
2024/01/07 01:15:13;;;;;;;0.20;0.20;;;;;;;6.43;77.35;99883.34;4993248;28;20121;-89
2024/01/07 01:17:38;;;;;;;0.20;0.20;;;;;;;6.28;77.19;99878.88;4993616;28;20460;-90
2024/01/07 01:20:04;;;;;;;0.15;0.15;;;;;;;6.21;77.56;99856.94;4992803;28;20061;-91
2024/01/07 01:22:30;;;;;;;0.20;0.20;;;;;;;6.29;77.84;99855.69;4992530;28;20026;-92
2024/01/07 01:24:56;;;;;;;0.20;0.20;;;;;;;6.40;77.66;99857.81;4994300;28;20151;-91
2024/01/07 01:27:21;;;;;;;0.20;0.20;;;;;;;6.32;77.68;99836.75;4994635;28;20027;-89
2024/01/07 01:29:47;;;;;;;0.20;0.20;;;;;;;6.26;78.31;99811.31;4993179;28;20559;-93
2024/01/07 01:32:12;;;;;;;0.20;0.20;;;;;;;6.42;78.36;99840.56;4994026;28;20065;-88
2024/01/07 01:34:40;;;;;;;0.20;0.20;;;;;;;6.44;78.13;99843.91;4992880;28;20491;-91
2024/01/07 01:37:05;;;;;;;0.20;0.20;;;;;;;6.54;78.03;99858.00;4993062;28;20114;-90
2024/01/07 01:39:31;;;;;;;0.20;0.20;;;;;;;6.53;78.03;99852.94;4993153;28;20117;-92
2024/01/07 01:41:58;;;;;;;0.20;0.20;;;;;;;6.42;78.32;99848.28;4992427;28;20046;-89
2024/01/07 01:44:23;;;;;;;0.20;0.20;;;;;;;6.40;78.77;99846.69;5009093;28;20034;-91
2024/01/07 01:46:49;;;;;;;0.20;0.20;;;;;;;6.23;78.69;99814.03;5009271;28;20030;-89
2024/01/07 01:49:14;;;;;;;0.20;0.20;;;;;;;6.26;79.06;99816.44;4992852;28;20064;-91
2024/01/07 01:51:40;;;;;;;0.20;0.20;;;;;;;6.28;79.44;99810.34;4992976;28;20408;-91
2024/01/07 01:54:05;;;;;;;0.20;0.20;;;;;;;6.35;78.92;99807.50;4992865;28;20455;-93
2024/01/07 01:56:31;;;;;;;0.20;0.20;;;;;;;6.42;78.82;99802.03;4992496;28;20452;-91
2024/01/07 01:58:56;;;;;;;0.20;0.20;;;;;;;6.40;78.39;99780.72;4992754;28;20045;-89
2024/01/07 02:01:25;;;;;;;0.20;0.20;;;;;;;6.45;78.13;99786.47;4992728;28;20444;-91
2024/01/07 02:03:52;;;;;;;0.20;0.20;;;;;;;6.49;78.08;99779.44;4992571;28;20124;-90
2024/01/07 02:06:18;;;;;;;0.20;0.20;;;;;;;6.35;77.76;99756.13;5008429;28;20030;-90
2024/01/07 02:08:43;;;;;;;0.20;0.20;;;;;;;6.27;78.63;99759.88;5008814;28;20061;-90
2024/01/07 02:11:16;;;;;;;0.20;0.20;;;;;;;6.26;78.75;99747.09;4992212;28;20089;-91
2024/01/07 02:13:41;;;;;;;0.20;0.20;;;;;;;6.33;78.39;99745.94;5009006;28;20041;-89
2024/01/07 02:16:07;;;;;;;0.20;0.20;;;;;;;6.29;78.55;99746.94;4992576;28;20062;-90
2024/01/07 02:18:32;;;;;;;0.20;0.20;;;;;;;6.29;78.38;99741.81;5008322;28;20026;-89
2024/01/07 02:20:58;;;;;;;0.20;0.20;;;;;;;6.25;78.33;99751.41;4992248;28;20038;-90
2024/01/07 02:23:23;;;;;;;0.20;0.20;;;;;;;6.16;78.01;99725.31;4992042;28;20030;-90
2024/01/07 02:25:49;;;;;;;0.20;0.20;;;;;;;6.13;78.13;99746.00;4991891;28;20034;-92
2024/01/07 02:28:14;;;;;;;0.20;0.20;;;;;;;6.02;78.42;99734.47;4992305;28;20030;-91
2024/01/07 02:30:40;;;;;;;0.20;0.20;;;;;;;6.08;78.52;99742.78;5008660;28;20045;-90
2024/01/07 02:33:05;;;;;;;0.20;0.20;;;;;;;6.11;78.25;99750.38;4992141;28;20059;-89
2024/01/07 02:35:31;;;;;;;0.20;0.20;;;;;;;6.00;78.15;99707.19;5008287;28;20030;-90
2024/01/07 02:37:56;;;;;;;0.10;0.10;;;;;;;5.99;77.43;99702.94;4992073;28;20249;-90
2024/01/07 02:40:22;;;;;;;0.10;0.10;;;;;;;6.04;77.31;99719.81;4991482;28;20104;-90
2024/01/07 02:42:47;;;;;;;0.20;0.20;;;;;;;5.90;77.90;99714.47;4992016;28;20053;-92
2024/01/07 02:45:13;;;;;;;0.20;0.20;;;;;;;5.93;78.13;99714.34;4992217;28;20085;-91
2024/01/07 02:47:39;;;;;;;0.10;0.10;;;;;;;5.92;78.05;99701.56;4991829;28;20109;-89
2024/01/07 02:50:04;;;;;;;0.20;0.20;;;;;;;5.88;78.16;99713.66;4975534;28;20050;-91
2024/01/07 02:52:30;;;;;;;0.20;0.20;;;;;;;5.76;78.61;99685.97;4991648;28;20030;-92
2024/01/07 02:54:56;;;;;;;0.20;0.20;;;;;;;5.99;77.70;99693.50;4992480;28;20037;-90
2024/01/07 02:57:21;;;;;;;0.20;0.20;;;;;;;5.94;77.70;99689.50;5008013;28;20030;-90
2024/01/07 02:59:48;;;;;;;0.20;0.20;;;;;;;5.81;77.83;99683.22;4992940;28;20034;-90
2024/01/07 03:02:13;;;;;;;0.20;0.20;;;;;;;5.86;77.35;99688.97;4991504;28;20088;-88
2024/01/07 03:04:39;;;;;;;0.20;0.20;;;;;;;5.79;77.94;99690.97;4991426;28;20030;-90
2024/01/07 03:07:04;;;;;;;0.10;0.10;;;;;;;5.78;78.59;99686.72;4991535;28;20041;-90
2024/01/07 03:09:30;;;;;;;0.20;0.20;;;;;;;5.86;78.20;99697.50;4992174;28;20034;-92
2024/01/07 03:11:55;;;;;;;0.20;0.20;;;;;;;5.76;77.94;99665.44;5007811;28;20068;-90
2024/01/07 03:14:21;;;;;;;0.20;0.20;;;;;;;5.92;77.71;99699.00;4975259;28;20050;-89
2024/01/07 03:16:47;;;;;;;0.20;0.20;;;;;;;5.78;78.18;99670.50;5007747;28;20058;-88
2024/01/07 03:19:12;;;;;;;0.20;0.20;;;;;;;5.98;78.60;99694.41;4992459;28;20093;-88
2024/01/07 03:21:38;;;;;;;0.20;0.20;;;;;;;5.99;78.37;99690.09;4990859;28;20030;-90
2024/01/07 03:24:04;;;;;;;0.20;0.20;;;;;;;6.00;77.85;99684.94;5007459;28;20031;-88
2024/01/07 03:26:32;;;;;;;0.20;0.20;;;;;;;6.07;77.80;99676.94;4991122;28;20088;-90
2024/01/07 03:28:59;;;;;;;0.10;0.10;;;;;;;6.11;78.18;99676.75;4991491;28;20036;-92
2024/01/07 03:31:25;;;;;;;0.20;0.20;;;;;;;6.08;77.64;99663.19;5007494;28;20045;-91
2024/01/07 03:33:50;;;;;;;0.10;0.10;;;;;;;6.02;77.76;99661.75;5007489;28;20481;-90
2024/01/07 03:36:16;;;;;;;0.20;0.20;;;;;;;6.09;77.69;99649.44;4991034;28;20120;-89
2024/01/07 03:38:42;;;;;;;0.10;0.10;;;;;;;6.13;78.00;99638.16;5007318;28;20038;-91
2024/01/07 03:41:07;;;;;;;0.20;0.20;;;;;;;6.11;77.77;99634.81;5007297;28;20501;-91
2024/01/07 03:43:33;;;;;;;0.20;0.20;;;;;;;6.10;77.43;99628.03;4990998;28;20036;-91
2024/01/07 03:45:58;;;;;;;0.20;0.20;;;;;;;6.11;76.54;99614.28;4990689;28;20022;-89
2024/01/07 03:48:24;;;;;;;0.10;0.10;;;;;;;6.18;76.16;99620.75;4991101;28;20484;-91
2024/01/07 03:50:50;;;;;;;0.10;0.10;;;;;;;6.07;75.78;99617.88;4974762;28;20026;-90
2024/01/07 03:53:16;;;;;;;0.20;0.20;;;;;;;6.00;76.54;99618.19;4990712;28;20041;-90
2024/01/07 03:55:41;;;;;;;0.20;0.20;;;;;;;6.01;76.37;99622.41;4990750;28;20462;-89
2024/01/07 03:58:07;;;;;;;0.20;0.20;;;;;;;6.03;76.80;99623.16;4990966;28;20034;-90
2024/01/07 04:00:33;;;;;;;0.20;0.20;;;;;;;6.06;76.45;99623.91;4991042;28;20152;-90
2024/01/07 04:02:58;;;;;;;0.20;0.20;;;;;;;6.09;76.52;99626.34;4990949;28;20034;-90
2024/01/07 04:05:24;;;;;;;0.20;0.20;;;;;;;6.11;76.97;99625.38;4990958;28;20579;-92
2024/01/07 04:07:50;;;;;;;0.20;0.20;;;;;;;6.12;76.71;99619.34;5006700;28;20106;-91
2024/01/07 04:10:18;;;;;;;0.10;0.10;;;;;;;6.16;76.67;99632.84;4990642;28;20408;-90
2024/01/07 04:12:44;;;;;;;0.10;0.10;;;;;;;6.19;76.27;99627.56;4990790;28;20031;-92
2024/01/07 04:15:13;;;;;;;0.20;0.20;;;;;;;6.14;76.18;99624.41;4990943;28;20045;-89
2024/01/07 04:17:38;;;;;;;0.20;0.20;;;;;;;6.10;77.09;99620.31;4990819;28;20041;-88
2024/01/07 04:20:05;;;;;;;0.20;0.20;;;;;;;6.07;76.48;99600.72;4990818;28;20030;-90
2024/01/07 04:22:31;;;;;;;0.20;0.20;;;;;;;6.15;76.62;99605.50;5006360;28;20587;-91
2024/01/07 04:24:56;;;;;;;0.20;0.20;;;;;;;6.13;76.90;99613.28;4990503;28;20125;-91
2024/01/07 04:27:22;;;;;;;0.20;0.20;;;;;;;5.90;77.33;99577.53;4990382;28;20026;-90
2024/01/07 04:29:47;;;;;;;0.20;0.20;;;;;;;6.07;76.97;99593.03;4990643;28;20030;-90
2024/01/07 04:32:13;;;;;;;0.20;0.20;;;;;;;6.11;76.86;99601.44;4991651;28;20101;-87
2024/01/07 04:34:38;;;;;;;0.20;0.20;;;;;;;6.01;76.68;99565.91;4990407;28;20038;-90
2024/01/07 04:37:04;;;;;;;0.20;0.20;;;;;;;6.18;76.98;99589.94;4991239;28;20405;-89
2024/01/07 04:39:29;;;;;;;0.20;0.20;;;;;;;6.15;76.29;99590.09;4990594;28;20512;-89
2024/01/07 04:41:55;;;;;;;0.20;0.20;;;;;;;6.17;76.21;99588.28;4990095;28;20509;-90
2024/01/07 04:44:20;;;;;;;0.20;0.20;;;;;;;6.02;76.12;99564.19;4990335;28;20448;-90
2024/01/07 04:46:47;;;;;;;0.20;0.20;;;;;;;6.11;75.54;99588.59;5006730;28;20039;-90
2024/01/07 04:49:13;;;;;;;0.20;0.20;;;;;;;6.11;75.93;99581.72;4990350;28;20022;-90
2024/01/07 04:51:38;;;;;;;0.20;0.20;;;;;;;6.19;76.13;99592.44;4991039;28;20037;-89
2024/01/07 04:54:05;;;;;;;0.20;0.20;;;;;;;6.19;75.89;99591.59;4990411;28;20031;-90
2024/01/07 04:56:31;;;;;;;0.20;0.20;;;;;;;6.17;75.65;99583.16;4992517;28;20101;-90
2024/01/07 04:58:57;;;;;;;0.20;0.20;;;;;;;6.01;76.86;99581.31;4993653;28;20022;-91
2024/01/07 05:01:22;;;;;;;0.15;0.15;;;;;;;5.98;76.39;99550.63;5010101;28;20512;-90
2024/01/07 05:03:48;;;;;;;0.20;0.20;;;;;;;6.17;75.91;99594.25;4995161;28;20022;-90
2024/01/07 05:06:13;;;;;;;0.20;0.20;;;;;;;6.25;75.89;99593.91;4993016;28;20030;-89
2024/01/07 05:08:40;;;;;;;0.20;0.20;;;;;;;6.09;75.95;99590.38;4993222;28;20037;-89
2024/01/07 05:11:06;;;;;;;0.20;0.20;;;;;;;5.99;76.61;99574.56;4993313;28;20022;-91
2024/01/07 05:13:31;;;;;;;0.20;0.20;;;;;;;6.09;75.78;99562.13;4993569;28;20081;-90
2024/01/07 05:15:57;;;;;;;0.20;0.20;;;;;;;6.18;75.56;99590.78;4993663;28;20027;-89
2024/01/07 05:18:23;;;;;;;0.20;0.20;;;;;;;6.12;75.26;99580.00;4977080;28;20042;-89
2024/01/07 05:20:48;;;;;;;0.20;0.20;;;;;;;6.21;75.32;99584.69;4993064;28;20022;-88
2024/01/07 05:23:14;;;;;;;0.10;0.10;;;;;;;6.20;75.15;99573.59;4993442;28;20593;-88
2024/01/07 05:25:40;;;;;;;0.20;0.20;;;;;;;6.26;75.65;99580.16;4994383;28;20105;-92
2024/01/07 05:28:06;;;;;;;0.20;0.20;;;;;;;6.25;75.75;99574.19;4993303;28;20054;-90
2024/01/07 05:30:31;;;;;;;0.20;0.20;;;;;;;6.31;75.97;99578.22;4994206;28;20040;-90
2024/01/07 05:32:57;;;;;;;0.20;0.20;;;;;;;6.39;75.95;99567.53;4993381;28;20031;-90
2024/01/07 05:35:22;;;;;;;0.20;0.20;;;;;;;6.41;74.99;99570.88;4993901;28;20031;-91
2024/01/07 05:37:48;;;;;;;0.20;0.20;;;;;;;6.31;74.34;99530.22;4994173;28;20065;-90
2024/01/07 05:40:14;;;;;;;0.20;0.20;;;;;;;6.42;75.21;99565.69;4994009;28;20027;-88
2024/01/07 05:42:39;;;;;;;0.20;0.20;;;;;;;6.41;75.84;99561.44;4992644;28;20031;-90
2024/01/07 05:45:05;;;;;;;0.20;0.20;;;;;;;6.40;75.33;99548.69;4992952;28;20481;-90
2024/01/07 05:47:31;;;;;;;0.20;0.20;;;;;;;6.50;75.27;99561.00;4994063;28;20098;-91
2024/01/07 05:49:56;;;;;;;0.20;0.20;;;;;;;6.49;75.69;99546.50;4992619;28;20033;-91
2024/01/07 05:52:22;;;;;;;0.20;0.20;;;;;;;6.60;74.99;99554.50;4993792;28;20031;-89
2024/01/07 05:54:48;;;;;;;0.20;0.20;;;;;;;6.27;74.74;99509.91;4992889;28;20060;-89
2024/01/07 05:57:13;;;;;;;0.20;0.20;;;;;;;6.23;75.02;99510.97;4992849;28;20081;-91
2024/01/07 05:59:39;;;;;;;0.20;0.20;;;;;;;6.38;75.41;99533.31;5008987;28;20069;-93
2024/01/07 06:02:04;;;;;;;0.20;0.20;;;;;;;6.44;75.33;99545.88;4992399;28;20034;-90
2024/01/07 06:04:30;;;;;;;0.20;0.20;;;;;;;6.46;75.03;99546.63;4992523;28;20495;-90
2024/01/07 06:06:55;;;;;;;0.20;0.20;;;;;;;6.44;74.44;99547.59;4992123;28;20514;-91
2024/01/07 06:09:21;;;;;;;0.20;0.20;;;;;;;6.43;74.86;99548.53;4992631;28;20038;-92
2024/01/07 06:11:47;;;;;;;0.20;0.20;;;;;;;6.55;75.35;99542.78;4992517;28;20109;-90
2024/01/07 06:14:12;;;;;;;0.20;0.20;;;;;;;6.61;74.97;99534.78;4992268;28;20085;-88
2024/01/07 06:16:38;;;;;;;0.20;0.20;;;;;;;6.48;74.86;99552.50;4992412;28;20484;-88
2024/01/07 06:19:03;;;;;;;0.20;0.20;;;;;;;6.53;74.57;99550.56;4992138;28;20481;-90
2024/01/07 06:21:29;;;;;;;0.20;0.20;;;;;;;6.60;74.60;99546.78;4992199;28;20041;-90
2024/01/07 06:23:55;;;;;;;0.20;0.20;;;;;;;6.63;74.72;99535.53;4992082;28;20030;-90
2024/01/07 06:26:20;;;;;;;0.20;0.20;;;;;;;6.70;73.63;99536.06;4991817;28;20065;-91
2024/01/07 06:28:46;;;;;;;0.20;0.20;;;;;;;6.60;73.68;99531.38;4992389;28;20123;-90
2024/01/07 06:31:11;;;;;;;0.20;0.20;;;;;;;6.52;73.99;99523.22;5008350;28;20030;-90
2024/01/07 06:33:37;;;;;;;0.20;0.20;;;;;;;6.65;74.37;99538.00;4991873;28;20030;-91
2024/01/07 06:36:02;;;;;;;0.20;0.20;;;;;;;6.74;73.84;99527.25;5008034;28;20022;-90
2024/01/07 06:38:28;;;;;;;0.20;0.20;;;;;;;6.76;74.15;99541.69;4991813;28;20018;-90
2024/01/07 06:41:00;;;;;;;0.20;0.20;;;;;;;6.74;74.08;99532.41;4991742;28;20057;-91
2024/01/07 06:43:29;;;;;;;0.20;0.20;;;;;;;6.73;75.66;99530.75;4992041;28;20026;-91
2024/01/07 06:45:55;;;;;;;0.20;0.20;;;;;;;6.82;76.00;99543.13;4991839;28;20030;-90
2024/01/07 06:48:20;;;;;;;0.20;0.20;;;;;;;6.76;76.13;99541.69;4991445;28;20029;-89
2024/01/07 06:50:46;;;;;;;0.20;0.20;;;;;;;6.76;76.61;99540.88;4991978;28;20104;-89
2024/01/07 06:53:11;;;;;;;0.10;0.10;;;;;;;6.80;75.54;99526.97;4991865;28;20109;-90
2024/01/07 06:55:37;;;;;;;0.20;0.20;;;;;;;7.01;75.58;99550.75;5008238;28;20500;-87
2024/01/07 06:58:03;;;;;;;0.20;0.20;;;;;;;6.94;75.94;99549.38;4975640;28;20030;-89
2024/01/07 07:00:28;;;;;;;0.20;0.20;;;;;;;6.92;76.07;99544.34;4991670;28;20049;-91
2024/01/07 07:02:54;;;;;;;0.20;0.20;;;;;;;7.02;76.58;99554.97;4991334;28;20023;-91
2024/01/07 07:05:19;;;;;;;0.10;0.10;;;;;;;7.05;76.82;99553.06;4991907;28;20077;-91
2024/01/07 07:07:45;;;;;;;0.20;0.20;;;;;;;6.98;77.57;99551.75;4991544;28;20030;-92
2024/01/07 07:10:11;;;;;;;0.20;0.20;;;;;;;6.79;76.65;99520.16;4991781;28;20038;-92
2024/01/07 07:12:36;;;;;;;0.20;0.20;;;;;;;6.94;76.67;99550.22;4992280;28;20037;-91
2024/01/07 07:15:02;;;;;;;0.20;0.20;;;;;;;6.97;77.32;99559.50;5007918;28;20566;-92
2024/01/07 07:17:27;;;;;;;0.20;0.20;;;;;;;6.85;77.72;99540.41;5007500;28;20026;-92
2024/01/07 07:19:53;;;;;;;0.20;0.20;;;;;;;6.97;77.19;99568.06;4990695;28;20045;-91
2024/01/07 07:22:18;;;;;;;0.20;0.20;;;;;;;6.98;77.47;99562.03;4991085;28;20034;-91
2024/01/07 07:24:44;;;;;;;0.20;0.20;;;;;;;7.06;77.91;99572.72;4991363;28;20034;-90
2024/01/07 07:27:09;;;;;;;0.10;0.10;;;;;;;6.97;78.45;99555.19;4991029;28;20519;-91
2024/01/07 07:29:35;;;;;;;0.20;0.20;;;;;;;7.13;78.10;99574.09;4991155;28;20031;-88
2024/01/07 07:32:00;;;;;;;0.20;0.20;;;;;;;6.96;78.76;99553.53;5007101;28;20030;-89
2024/01/07 07:34:26;;;;;;;0.20;0.20;;;;;;;7.17;78.89;99583.28;5007171;28;20453;-90
2024/01/07 07:36:51;;;;;;;0.20;0.20;;;;;;;7.07;79.39;99560.69;4990786;28;20030;-90
2024/01/07 07:39:17;;;;;;;0.10;0.10;;;;;;;7.21;79.37;99572.88;4991954;28;20030;-90
2024/01/07 07:41:43;;;;;;;0.20;0.20;;;;;;;7.14;80.07;99568.03;4990388;28;20050;-89
2024/01/07 07:44:08;;;;;;;0.20;0.20;;;;;;;7.10;80.41;99563.97;4990595;28;20057;-91
2024/01/07 07:46:34;;;;;;;0.20;0.20;;;;;;;7.07;79.82;99546.09;5006397;28;20118;-91
2024/01/07 07:49:00;;;;;;;0.20;0.20;;;;;;;7.28;79.18;99574.22;4990748;28;20033;-88
2024/01/07 07:51:26;;;;;;;0.20;0.20;;;;;;;7.29;78.48;99568.16;4990650;28;20018;-91
2024/01/07 07:53:52;;;;;;;0.20;0.20;;;;;;;7.25;78.44;99558.94;4990633;28;20034;-90
2024/01/07 07:56:17;;;;;;;0.20;0.20;;;;;;;7.30;78.11;99573.22;4990673;28;20054;-89
2024/01/07 07:58:43;;;;;;;0.20;0.20;;;;;;;7.41;77.85;99580.38;4990785;28;20109;-90
2024/01/07 08:01:08;;;;;;;0.20;0.20;;;;;;;7.44;77.48;99573.31;5006665;28;20039;-90
2024/01/07 08:03:34;;;;;;;0.20;0.20;;;;;;;7.43;77.87;99581.13;4991820;28;20026;-89
2024/01/07 08:06:00;;;;;;;0.20;0.20;;;;;;;7.45;77.63;99582.69;5006949;28;20138;-89
2024/01/07 08:08:25;;;;;;;0.20;0.20;;;;;;;7.48;77.42;99582.56;4990976;28;20069;-90
2024/01/07 08:10:51;;;;;;;0.20;0.20;;;;;;;7.40;77.73;99578.72;4990388;28;20031;-92
2024/01/07 08:13:16;;;;;;;0.20;0.20;;;;;;;7.29;78.18;99581.03;4990594;28;20033;-89
2024/01/07 08:15:42;;;;;;;0.20;0.20;;;;;;;7.10;79.16;99565.72;4990145;28;20101;-90
2024/01/07 08:18:07;;;;;;;0.20;0.20;;;;;;;7.16;79.46;99573.91;4992014;28;20400;-90
2024/01/07 08:20:33;;;;;;;0.20;0.20;;;;;;;7.21;78.85;99578.84;4974032;28;20038;-90
2024/01/07 08:23:00;;;;;;;0.20;0.20;;;;;;;7.11;79.72;99562.22;4990369;28;20030;-88
2024/01/07 08:25:25;;;;;;;0.20;0.20;;;;;;;7.14;80.72;99578.31;5006545;28;20093;-87
2024/01/07 08:27:51;;;;;;;0.20;0.20;;;;;;;7.14;80.55;99568.03;5006576;28;20034;-89
2024/01/07 08:30:17;;;;;;;0.20;0.20;;;;;;;7.14;79.63;99575.75;5007394;28;20084;-88
2024/01/07 08:32:42;;;;;;;0.20;0.20;;;;;;;7.08;79.83;99572.66;4994225;28;20084;-90
2024/01/07 08:35:09;;;;;;;0.20;0.20;;;;;;;7.08;80.30;99583.78;5010683;28;20420;-89
2024/01/07 08:37:34;;;;;;;0.20;0.20;;;;;;;6.85;80.65;99550.69;5010215;28;20551;-90
2024/01/07 08:40:00;;;;;;;0.20;0.20;;;;;;;6.83;81.08;99573.91;4993789;28;20034;-89
2024/01/07 08:42:30;;;;;;;0.15;0.15;;;;;;;6.98;81.56;99592.03;4993325;28;20113;-88
2024/01/07 08:44:56;;;;;;;0.20;0.20;;;;;;;6.91;82.35;99570.97;4993964;28;20028;-92
2024/01/07 08:47:21;;;;;;;0.20;0.20;;;;;;;7.00;81.51;99565.34;4994992;28;20114;-91
2024/01/07 08:49:47;;;;;;;0.20;0.20;;;;;;;7.09;81.35;99585.44;5010246;28;20030;-92
2024/01/07 08:52:12;;;;;;;0.20;0.20;;;;;;;7.04;82.36;99574.56;4993758;28;20034;-90
2024/01/07 08:54:38;;;;;;;0.20;0.20;;;;;;;7.10;82.72;99576.00;4993461;28;20030;-90
2024/01/07 08:57:04;;;;;;;0.20;0.20;;;;;;;7.17;82.41;99569.59;4993365;28;20030;-90
2024/01/07 08:59:29;;;;;;;0.20;0.20;;;;;;;7.19;82.30;99563.50;4993452;28;20057;-90
2024/01/07 09:01:55;;;;;;;0.20;0.20;;;;;;;7.16;81.87;99550.78;4993031;28;20129;-87
2024/01/07 09:04:20;;;;;;;0.20;0.20;;;;;;;7.29;81.76;99563.03;4993359;28;20117;-89
2024/01/07 09:06:46;;;;;;;0.20;0.20;;;;;;;7.35;81.69;99565.25;5009532;28;20030;-90
2024/01/07 09:09:11;;;;;;;0.20;0.20;;;;;;;7.33;81.42;99564.50;4993754;28;20081;-89
2024/01/07 09:11:37;;;;;;;0.20;0.20;;;;;;;7.38;80.96;99549.69;4993083;28;20030;-90
2024/01/07 09:14:03;;;;;;;0.20;0.20;;;;;;;7.49;80.98;99552.50;4993612;28;20504;-90
2024/01/07 09:16:29;;;;;;;0.20;0.20;;;;;;;7.47;81.44;99542.28;4976812;28;20113;-89
2024/01/07 09:18:55;;;;;;;0.20;0.20;;;;;;;7.43;80.95;99538.22;5009864;28;20471;-89
2024/01/07 09:21:20;;;;;;;0.20;0.20;;;;;;;7.52;81.54;99542.03;5009161;28;20038;-90
2024/01/07 09:23:46;;;;;;;0.20;0.20;;;;;;;7.51;81.14;99524.09;5009520;28;20037;-90
2024/01/07 09:26:11;;;;;;;0.20;0.20;;;;;;;7.63;81.55;99539.72;4992576;28;20037;-89
2024/01/07 09:28:37;;;;;;;0.20;0.20;;;;;;;7.58;81.86;99500.53;5009264;28;20030;-89
2024/01/07 09:31:03;;;;;;;0.20;0.20;;;;;;;7.72;82.57;99528.91;4993317;28;20042;-88
2024/01/07 09:33:28;;;;;;;0.20;0.20;;;;;;;7.62;82.09;99514.88;4993078;28;20023;-90
2024/01/07 09:35:54;;;;;;;0.20;0.20;;;;;;;7.75;82.55;99533.88;5009602;28;20504;-90
2024/01/07 09:38:20;;;;;;;0.20;0.20;;;;;;;7.66;82.87;99518.94;4992620;28;20022;-89
2024/01/07 09:40:46;;;;;;;0.20;0.20;;;;;;;7.64;82.87;99487.31;5008356;28;20050;-89
2024/01/07 09:43:11;;;;;;;0.20;0.20;;;;;;;7.74;82.77;99510.81;4991907;28;20420;-88
2024/01/07 09:45:39;;;;;;;0.20;0.20;;;;;;;7.88;83.31;99508.31;4992906;28;20088;-88
2024/01/07 09:48:05;;;;;;;0.20;0.20;;;;;;;7.89;83.45;99489.38;4992838;28;20168;-90
2024/01/07 09:50:30;;;;;;;0.20;0.20;;;;;;;8.00;83.32;99496.50;4992492;28;20057;-88
2024/01/07 09:52:57;;;;;;;0.20;0.20;;;;;;;8.08;83.40;99486.59;4993721;28;20109;-90
2024/01/07 09:55:28;;;;;;;0.20;0.20;;;;;;;8.03;82.81;99455.09;4992316;28;20037;-91
2024/01/07 09:57:54;;;;;;;0.20;0.20;;;;;;;8.15;83.38;99471.59;4992655;28;20101;-89
2024/01/07 10:00:20;;;;;;;0.20;0.20;;;;;;;8.21;82.86;99469.50;4992356;28;20073;-89
2024/01/07 10:02:45;;;;;;;0.20;0.20;;;;;;;8.24;82.70;99464.19;5008811;28;20160;-89
2024/01/07 10:05:11;;;;;;;0.20;0.20;;;;;;;8.26;83.08;99470.09;4992443;28;20568;-91
2024/01/07 10:07:36;;;;;;;0.20;0.20;;;;;;;8.25;83.61;99457.28;5008461;28;20030;-88
2024/01/07 10:10:15;;;;;;;0.20;0.20;;;;;;;8.04;82.53;99418.13;4992054;28;20026;-88
2024/01/07 10:12:40;;;;;;;0.20;0.20;;;;;;;8.33;82.69;99455.09;4992139;28;20026;-92
2024/01/07 10:15:07;;;;;;;0.20;0.20;;;;;;;8.40;82.62;99445.28;4991961;28;20030;-88
2024/01/07 10:17:33;;;;;;;0.20;0.20;;;;;;;8.53;82.35;99446.22;4992195;28;20038;-90
2024/01/07 10:19:58;;;;;;;0.10;0.10;;;;;;;8.59;82.27;99438.13;4992328;28;20116;-89
2024/01/07 10:22:24;;;;;;;0.10;0.10;;;;;;;8.52;81.89;99432.50;4992051;28;20034;-90
2024/01/07 10:24:51;;;;;;;0.20;0.20;;;;;;;8.52;81.98;99431.69;4991546;28;20034;-90
2024/01/07 10:27:16;;;;;;;0.20;0.20;;;;;;;8.61;82.69;99433.72;4992013;28;20061;-90
2024/01/07 10:29:42;;;;;;;0.20;0.20;;;;;;;8.65;82.21;99432.59;4992095;28;20507;-89
2024/01/07 10:32:07;;;;;;;0.20;0.20;;;;;;;8.65;83.15;99431.75;4992133;28;20030;-90
2024/01/07 10:34:36;;;;;;;0.20;0.20;;;;;;;8.63;82.69;99427.53;4991910;28;20397;-91
2024/01/07 10:37:03;;;;;;;0.10;0.10;;;;;;;8.62;83.17;99422.47;5008156;28;20085;-89
2024/01/07 10:39:29;;;;;;;0.20;0.20;;;;;;;8.70;83.13;99430.59;4991422;28;20084;-89
2024/01/07 10:41:57;;;;;;;0.20;0.20;;;;;;;8.80;82.68;99425.69;5007678;28;20051;-89
2024/01/07 10:44:32;;;;;;;0.20;0.20;;;;;;;8.69;83.33;99418.63;4991621;28;20085;-89
2024/01/07 10:46:58;;;;;;;0.20;0.20;;;;;;;8.65;83.42;99416.28;4991580;28;20507;-89
2024/01/07 10:49:28;;;;;;;0.20;0.20;;;;;;;8.84;83.72;99412.50;4991324;28;20034;-90
2024/01/07 10:52:04;;;;;;;0.20;0.20;;;;;;;8.93;82.89;99418.03;4991545;28;20026;-90
2024/01/07 10:54:30;;;;;;;0.20;0.20;;;;;;;8.92;83.01;99419.78;5006606;28;20030;-89
2024/01/07 10:56:58;;;;;;;0.20;0.20;;;;;;;8.97;83.08;99422.94;5007734;28;20037;-91
2024/01/07 10:59:24;;;;;;;0.20;0.20;;;;;;;8.89;81.75;99407.91;4991095;28;20405;-89
2024/01/07 11:01:49;;;;;;;0.20;0.20;;;;;;;8.74;81.27;99380.47;4991190;28;20041;-90
2024/01/07 11:04:23;;;;;;;0.20;0.20;;;;;;;8.93;81.27;99412.88;4992333;28;20073;-88
2024/01/07 11:06:54;;;;;;;0.10;0.10;;;;;;;8.99;81.42;99412.50;4991424;28;20084;-90
2024/01/07 11:09:29;;;;;;;0.20;0.20;;;;;;;9.03;80.54;99421.72;4990852;28;20108;-90
2024/01/07 11:11:54;;;;;;;0.20;0.20;;;;;;;8.95;80.58;99408.44;4992297;28;20046;-91
2024/01/07 11:14:36;;;;;;;0.20;0.20;;;;;;;8.83;81.40;99410.84;4991028;28;20488;-90
2024/01/07 11:17:03;;;;;;;0.20;0.20;;;;;;;8.83;81.51;99404.88;4991204;28;20026;-91
2024/01/07 11:19:29;;;;;;;0.20;0.20;;;;;;;8.88;81.90;99408.84;4991154;28;20049;-89
2024/01/07 11:22:29;;;;;;;0.20;0.20;;;;;;;8.94;81.73;99417.13;4990140;28;20031;-90
2024/01/07 11:24:57;;;;;;;0.20;0.20;;;;;;;8.94;82.16;99412.78;4991891;28;20074;-89
2024/01/07 11:27:24;;;;;;;0.20;0.20;;;;;;;8.98;81.92;99413.44;4990929;28;20113;-91
2024/01/07 11:30:04;;;;;;;0.20;0.20;;;;;;;8.97;82.73;99409.22;4990647;28;20033;-89
2024/01/07 11:32:30;;;;;;;0.20;0.20;;;;;;;8.90;83.02;99403.59;4991057;28;20468;-90
2024/01/07 11:34:56;;;;;;;0.20;0.20;;;;;;;8.68;82.27;99365.41;4991822;28;20058;-90
2024/01/07 11:37:22;;;;;;;0.20;0.20;;;;;;;8.93;82.00;99407.72;4990075;28;20029;-89